createdAt,value
2018-06-25T00:00:28.249Z,98243.56
2018-06-25T00:02:57.432Z,98246.50
2018-06-25T00:05:26.653Z,98248.38
2018-06-25T00:07:55.834Z,98248.92
2018-06-25T00:10:25.047Z,98250.54
2018-06-25T00:12:54.297Z,98250.28
2018-06-25T00:15:23.725Z,98245.98
2018-06-25T00:17:52.966Z,98248.10
2018-06-25T00:20:22.290Z,98252.14
2018-06-25T00:22:51.610Z,98250.27
2018-06-25T00:25:21.437Z,98250.81
2018-06-25T00:27:50.742Z,98250.78
2018-06-25T00:30:20.981Z,98251.86
2018-06-25T00:32:50.383Z,98246.48
2018-06-25T00:35:19.650Z,98248.10
2018-06-25T00:37:48.887Z,98248.37
2018-06-25T00:40:18.147Z,98251.59
2018-06-25T00:42:47.135Z,98245.13
2018-06-25T00:45:16.479Z,98241.92
2018-06-25T00:47:45.456Z,98239.20
2018-06-25T00:50:14.670Z,98238.44
2018-06-25T00:52:43.902Z,98234.11
2018-06-25T00:55:13.182Z,98231.70
2018-06-25T00:57:42.449Z,98237.03
2018-06-25T01:00:11.689Z,98239.20
2018-06-25T01:02:40.914Z,98241.88
2018-06-25T01:05:10.139Z,98233.82
2018-06-25T01:07:39.377Z,98238.37
2018-06-25T01:10:08.638Z,98239.17
2018-06-25T01:12:37.855Z,98241.04
2018-06-25T01:15:07.102Z,98243.70
2018-06-25T01:17:36.168Z,98238.88
2018-06-25T01:20:05.431Z,98236.19
2018-06-25T01:22:34.699Z,98236.20
2018-06-25T01:25:04.134Z,98232.45
2018-06-25T01:27:33.382Z,98235.34
2018-06-25T01:30:02.667Z,98235.62
2018-06-25T01:32:31.916Z,98232.94
2018-06-25T01:35:01.155Z,98232.13
2018-06-25T01:37:30.400Z,98234.53
2018-06-25T01:39:59.639Z,98233.73
2018-06-25T01:42:28.895Z,98234.23
2018-06-25T01:44:58.152Z,98231.83
2018-06-25T01:47:27.407Z,98232.58
2018-06-25T01:49:56.645Z,98230.21
2018-06-25T01:52:25.968Z,98232.36
2018-06-25T01:54:55.215Z,98234.77
2018-06-25T01:57:24.488Z,98228.06
2018-06-25T01:59:53.760Z,98241.18
2018-06-25T02:02:23.050Z,98236.36
2018-06-25T02:04:52.277Z,98234.77
2018-06-25T02:07:21.538Z,98234.23
2018-06-25T02:09:50.787Z,98238.50
2018-06-25T02:12:19.806Z,98233.67
2018-06-25T02:14:49.043Z,98229.66
2018-06-25T02:17:18.342Z,98230.97
2018-06-25T02:19:47.583Z,98240.66
2018-06-25T02:22:16.831Z,98242.53
2018-06-25T02:24:46.035Z,98248.92
2018-06-25T02:27:15.298Z,98248.36
2018-06-25T02:29:44.535Z,98247.27
2018-06-25T02:32:13.842Z,98243.28
2018-06-25T02:34:43.104Z,98245.39
2018-06-25T02:37:12.341Z,98247.27
2018-06-25T02:39:41.626Z,98253.72
2018-06-25T02:42:10.906Z,98248.85
2018-06-25T02:44:40.167Z,98242.37
2018-06-25T02:47:09.386Z,98249.88
2018-06-25T02:49:38.693Z,98242.61
2018-06-25T02:52:07.950Z,98240.75
2018-06-25T02:54:37.203Z,98238.02
2018-06-25T02:57:06.447Z,98241.55
2018-06-25T02:59:35.707Z,98239.69
2018-06-25T03:02:04.986Z,98237.25
2018-06-25T03:04:34.244Z,98235.67
2018-06-25T03:07:03.491Z,98235.88
2018-06-25T03:09:32.851Z,98238.02
2018-06-25T03:12:02.071Z,98240.46
2018-06-25T03:14:31.320Z,98232.35
2018-06-25T03:17:00.498Z,98240.10
2018-06-25T03:19:29.442Z,98244.12
2018-06-25T03:21:58.645Z,98244.12
2018-06-25T03:24:27.871Z,98247.78
2018-06-25T03:26:57.101Z,98252.03
2018-06-25T03:29:26.327Z,98251.98
2018-06-25T03:31:55.555Z,98262.41
2018-06-25T03:34:24.819Z,98262.64
2018-06-25T03:36:54.015Z,98262.59
2018-06-25T03:39:23.307Z,98266.08
2018-06-25T03:41:52.483Z,98270.92
2018-06-25T03:44:21.742Z,98265.38
2018-06-25T03:46:50.948Z,98267.23
2018-06-25T03:49:20.164Z,98264.23
2018-06-25T03:51:49.388Z,98270.91
2018-06-25T03:54:18.667Z,98273.34
2018-06-25T03:56:47.916Z,98274.94
2018-06-25T03:59:17.123Z,98282.24
2018-06-25T04:01:46.241Z,98282.78
2018-06-25T04:04:15.515Z,98280.71
2018-06-25T04:06:44.723Z,98287.13
2018-06-25T04:09:13.918Z,98292.48
2018-06-25T04:11:43.188Z,98296.78
2018-06-25T04:14:12.388Z,98294.64
2018-06-25T04:16:41.619Z,98289.36
2018-06-25T04:19:10.863Z,98293.13
2018-06-25T04:21:40.099Z,98298.78
2018-06-25T04:24:09.322Z,98287.78
2018-06-25T04:26:38.574Z,98296.63
2018-06-25T04:29:07.847Z,98300.73
2018-06-25T04:31:37.200Z,98301.55
2018-06-25T04:34:06.462Z,98300.25
2018-06-25T04:36:35.722Z,98299.19
2018-06-25T04:39:07.892Z,98300.33
2018-06-25T04:41:37.258Z,98307.59
2018-06-25T04:44:06.682Z,98306.81
2018-06-25T04:46:36.275Z,98311.89
2018-06-25T04:49:05.955Z,98320.95
2018-06-25T04:51:35.239Z,98320.29
2018-06-25T04:54:04.546Z,98322.22
2018-06-25T04:56:33.875Z,98320.05
2018-06-25T04:59:03.151Z,98318.59
2018-06-25T05:01:32.576Z,98322.69
2018-06-25T05:04:01.867Z,98320.60
2018-06-25T05:06:31.165Z,98323.06
2018-06-25T05:09:00.392Z,98326.84
2018-06-25T05:11:29.655Z,98336.22
2018-06-25T05:13:58.948Z,98335.46
2018-06-25T05:16:27.951Z,98338.70
2018-06-25T05:18:56.949Z,98335.55
2018-06-25T05:21:26.210Z,98336.58
2018-06-25T05:23:55.512Z,98333.84
2018-06-25T05:26:24.955Z,98340.34
2018-06-25T05:28:54.206Z,98340.58
2018-06-25T05:31:23.611Z,98341.44
2018-06-25T05:33:53.024Z,98340.80
2018-06-25T05:36:22.472Z,98348.34
2018-06-25T05:38:51.581Z,98348.70
2018-06-25T05:41:20.879Z,98347.11
2018-06-25T05:43:50.302Z,98350.09
2018-06-25T05:46:19.381Z,98346.93
2018-06-25T05:48:48.838Z,98345.02
2018-06-25T05:51:18.175Z,98354.11
2018-06-25T05:53:47.461Z,98347.72
2018-06-25T05:56:16.762Z,98354.44
2018-06-25T05:58:46.048Z,98360.56
2018-06-25T06:01:15.296Z,98363.30
2018-06-25T06:03:44.524Z,98365.71
2018-06-25T06:06:13.801Z,98366.52
2018-06-25T06:08:43.111Z,98365.73
2018-06-25T06:11:12.332Z,98375.88
2018-06-25T06:13:41.591Z,98371.88
2018-06-25T06:16:10.861Z,98378.27
2018-06-25T06:18:40.109Z,98376.12
2018-06-25T06:21:09.359Z,98381.78
2018-06-25T06:23:38.603Z,98381.25
2018-06-25T06:26:07.823Z,98382.56
2018-06-25T06:28:37.098Z,98376.41
2018-06-25T06:31:06.366Z,98386.61
2018-06-25T06:33:35.635Z,98383.09
2018-06-25T06:36:04.899Z,98399.76
2018-06-25T06:38:34.168Z,98387.91
2018-06-25T06:41:03.419Z,98392.10
2018-06-25T06:43:32.635Z,98394.16
2018-06-25T06:46:01.887Z,98401.86
2018-06-25T06:48:31.206Z,98397.41
2018-06-25T06:51:00.507Z,98404.92
2018-06-25T06:53:29.760Z,98406.42
2018-06-25T06:55:58.741Z,98410.41
2018-06-25T06:58:28.019Z,98407.45
2018-06-25T07:00:57.255Z,98401.58
2018-06-25T07:03:26.495Z,98405.09
2018-06-25T07:05:55.736Z,98407.75
2018-06-25T07:08:24.958Z,98403.98
2018-06-25T07:10:54.146Z,98405.38
2018-06-25T07:13:23.384Z,98411.47
2018-06-25T07:15:52.592Z,98411.28
2018-06-25T07:18:21.897Z,98409.07
2018-06-25T07:20:51.167Z,98413.91
2018-06-25T07:23:20.554Z,98411.83
2018-06-25T07:25:49.840Z,98415.33
2018-06-25T07:28:19.170Z,98413.45
2018-06-25T07:30:48.592Z,98416.67
2018-06-25T07:33:17.953Z,98413.25
2018-06-25T07:35:47.064Z,98411.62
2018-06-25T07:38:16.193Z,98413.20
2018-06-25T07:40:45.507Z,98412.15
2018-06-25T07:43:14.755Z,98416.23
2018-06-25T07:45:44.040Z,98410.83
2018-06-25T07:48:13.400Z,98407.13
2018-06-25T07:50:42.756Z,98406.86
2018-06-25T07:53:12.079Z,98411.44
2018-06-25T07:55:41.310Z,98408.72
2018-06-25T07:58:10.692Z,98409.30
2018-06-25T08:00:40.059Z,98407.44
2018-06-25T08:03:09.326Z,98410.93
2018-06-25T08:05:38.623Z,98413.62
2018-06-25T08:08:07.896Z,98411.16
2018-06-25T08:10:37.277Z,98411.97
2018-06-25T08:13:06.675Z,98414.68
2018-06-25T08:15:35.799Z,98421.64
2018-06-25T08:18:05.262Z,98422.17
2018-06-25T08:20:34.619Z,98428.42
2018-06-25T08:23:03.991Z,98431.37
2018-06-25T08:25:33.301Z,98434.62
2018-06-25T08:28:02.640Z,98435.97
2018-06-25T08:30:31.735Z,98439.98
2018-06-25T08:33:01.117Z,98439.16
2018-06-25T08:35:30.478Z,98437.01
2018-06-25T08:37:59.782Z,98439.39
2018-06-25T08:40:29.943Z,98444.25
2018-06-25T08:42:58.961Z,98447.97
2018-06-25T08:45:28.305Z,98441.27
2018-06-25T08:47:57.651Z,98451.84
2018-06-25T08:50:27.001Z,98454.53
2018-06-25T08:52:56.291Z,98456.29
2018-06-25T08:55:25.638Z,98450.09
2018-06-25T08:57:55.104Z,98446.98
2018-06-25T09:00:24.525Z,98444.11
2018-06-25T09:02:53.943Z,98447.05
2018-06-25T09:05:23.458Z,98450.06
2018-06-25T09:07:52.827Z,98453.30
2018-06-25T09:10:22.262Z,98449.92
2018-06-25T09:12:51.665Z,98449.95
2018-06-25T09:15:21.796Z,98462.43
2018-06-25T09:17:51.036Z,98454.02
2018-06-25T09:20:20.375Z,98453.33
2018-06-25T09:22:49.633Z,98450.89
2018-06-25T09:25:19.205Z,98450.69
2018-06-25T09:27:49.839Z,98454.73
2018-06-25T09:30:20.039Z,98456.19
2018-06-25T09:32:49.381Z,98462.44
2018-06-25T09:35:18.806Z,98456.84
2018-06-25T09:37:48.058Z,98460.75
2018-06-25T09:40:17.393Z,98456.91
2018-06-25T09:42:46.743Z,98458.87
2018-06-25T09:45:16.092Z,98460.63
2018-06-25T09:47:45.439Z,98466.22
2018-06-25T09:50:14.803Z,98465.02
2018-06-25T09:52:44.167Z,98464.41
2018-06-25T09:55:13.434Z,98469.89
2018-06-25T09:57:42.748Z,98463.28
2018-06-25T10:00:12.012Z,98463.87
2018-06-25T10:02:41.259Z,98462.83
2018-06-25T10:05:10.548Z,98475.02
2018-06-25T10:07:39.874Z,98470.23
2018-06-25T10:10:09.126Z,98472.52
2018-06-25T10:12:38.467Z,98471.79
2018-06-25T10:15:07.969Z,98472.50
2018-06-25T10:17:37.382Z,98468.14
2018-06-25T10:20:06.690Z,98465.94
2018-06-25T10:22:35.963Z,98472.77
2018-06-25T10:25:05.263Z,98469.52
2018-06-25T10:27:34.780Z,98467.33
2018-06-25T10:30:04.259Z,98466.63
2018-06-25T10:32:33.586Z,98474.97
2018-06-25T10:35:02.916Z,98469.94
2018-06-25T10:37:32.401Z,98457.33
2018-06-25T10:40:02.276Z,98458.66
2018-06-25T10:42:31.782Z,98459.20
2018-06-25T10:45:04.263Z,98456.92
2018-06-25T10:47:33.748Z,98456.16
2018-06-25T10:50:03.084Z,98450.23
2018-06-25T10:52:32.509Z,98454.20
2018-06-25T10:55:02.135Z,98453.22
2018-06-25T10:57:32.888Z,98455.52
2018-06-25T11:00:02.608Z,98449.34
2018-06-25T11:02:32.853Z,98451.25
2018-06-25T11:05:02.490Z,98453.44
2018-06-25T11:07:31.909Z,98458.91
2018-06-25T11:10:01.317Z,98452.06
2018-06-25T11:12:30.882Z,98462.59
2018-06-25T11:15:00.653Z,98441.38
2018-06-25T11:17:30.356Z,98437.97
2018-06-25T11:20:00.075Z,98446.17
2018-06-25T11:22:29.995Z,98448.83
2018-06-25T11:24:59.495Z,98442.29
2018-06-25T11:27:29.100Z,98443.14
2018-06-25T11:29:58.574Z,98445.02
2018-06-25T11:32:28.093Z,98446.20
2018-06-25T11:34:57.595Z,98440.78
2018-06-25T11:37:27.002Z,98444.83
2018-06-25T11:39:56.799Z,98442.76
2018-06-25T11:42:26.308Z,98444.78
2018-06-25T11:44:55.587Z,98444.50
2018-06-25T11:47:25.113Z,98442.12
2018-06-25T11:49:54.519Z,98445.70
2018-06-25T11:52:24.206Z,98445.58
2018-06-25T11:54:53.846Z,98438.42
2018-06-25T11:57:23.482Z,98441.98
2018-06-25T11:59:53.164Z,98434.36
2018-06-25T12:02:22.687Z,98436.56
2018-06-25T12:04:52.282Z,98434.66
2018-06-25T12:07:22.190Z,98433.06
2018-06-25T12:09:52.085Z,98427.94
2018-06-25T12:12:21.760Z,98425.98
2018-06-25T12:14:51.295Z,98431.34
2018-06-25T12:17:20.789Z,98427.78
2018-06-25T12:19:50.375Z,98422.72
2018-06-25T12:22:19.534Z,98429.94
2018-06-25T12:24:48.844Z,98422.50
2018-06-25T12:27:18.264Z,98425.48
2018-06-25T12:29:47.724Z,98421.69
2018-06-25T12:32:17.244Z,98424.89
2018-06-25T12:34:46.718Z,98414.80
2018-06-25T12:37:16.135Z,98412.64
2018-06-25T12:39:45.496Z,98418.96
2018-06-25T12:42:15.009Z,98414.66
2018-06-25T12:44:44.451Z,98421.06
2018-06-25T12:47:14.094Z,98419.20
2018-06-25T12:49:43.722Z,98422.11
2018-06-25T12:52:13.128Z,98420.16
2018-06-25T12:54:42.395Z,98430.80
2018-06-25T12:57:11.936Z,98434.58
2018-06-25T12:59:41.472Z,98431.32
2018-06-25T13:02:10.718Z,98435.34
2018-06-25T13:04:40.170Z,98421.08
2018-06-25T13:07:09.586Z,98429.28
2018-06-25T13:09:39.123Z,98431.14
2018-06-25T13:12:08.704Z,98432.08
2018-06-25T13:14:38.193Z,98420.50
2018-06-25T13:17:07.887Z,98432.38
2018-06-25T13:19:37.398Z,98429.91
2018-06-25T13:22:06.791Z,98425.88
2018-06-25T13:24:36.438Z,98426.52
2018-06-25T13:27:05.864Z,98425.73
2018-06-25T13:29:35.276Z,98428.38
2018-06-25T13:32:07.802Z,98436.63
2018-06-25T13:34:38.355Z,98425.33
2018-06-25T13:37:07.911Z,98432.83
2018-06-25T13:39:37.609Z,98429.66
2018-06-25T13:42:07.087Z,98440.97
2018-06-25T13:44:37.171Z,98437.89
2018-06-25T13:47:06.812Z,98430.61
2018-06-25T13:49:36.502Z,98424.05
2018-06-25T13:52:06.669Z,98419.69
2018-06-25T13:54:36.152Z,98420.95
2018-06-25T13:57:05.754Z,98424.16
2018-06-25T13:59:35.444Z,98413.91
2018-06-25T14:02:04.677Z,98419.55
2018-06-25T14:04:34.088Z,98416.34
2018-06-25T14:07:03.740Z,98416.19
2018-06-25T14:09:32.830Z,98414.90
2018-06-25T14:12:02.264Z,98411.47
2018-06-25T14:14:31.743Z,98424.69
2018-06-25T14:17:01.301Z,98425.48
2018-06-25T14:19:30.747Z,98427.98
2018-06-25T14:22:00.378Z,98425.08
2018-06-25T14:24:34.942Z,98416.30
2018-06-25T14:27:13.087Z,98413.32
2018-06-25T14:29:42.566Z,98409.63
2018-06-25T14:32:17.309Z,98405.98
2018-06-25T14:34:52.196Z,98411.12
2018-06-25T14:37:21.920Z,98399.70
2018-06-25T14:39:51.370Z,98402.25
2018-06-25T14:42:21.949Z,98398.97
2018-06-25T14:44:52.658Z,98404.22
2018-06-25T14:47:23.355Z,98408.10
2018-06-25T14:49:53.741Z,98404.83
2018-06-25T14:52:25.401Z,98410.70
2018-06-25T14:54:55.486Z,98409.47
2018-06-25T14:57:26.171Z,98407.41
2018-06-25T14:59:56.506Z,98407.13
2018-06-25T15:02:27.272Z,98405.73
2018-06-25T15:04:56.727Z,98399.36
2018-06-25T15:07:26.140Z,98400.30
2018-06-25T15:09:55.472Z,98387.48
2018-06-25T15:12:24.534Z,98394.13
2018-06-25T15:14:53.908Z,98394.10
2018-06-25T15:17:23.279Z,98397.95
2018-06-25T15:19:52.578Z,98394.98
2018-06-25T15:22:22.883Z,98400.75
2018-06-25T15:24:52.215Z,98391.88
2018-06-25T15:27:21.590Z,98393.13
2018-06-25T15:29:50.959Z,98391.19
2018-06-25T15:32:20.375Z,98392.69
2018-06-25T15:34:49.766Z,98395.56
2018-06-25T15:37:19.225Z,98389.36
2018-06-25T15:39:48.719Z,98380.97
2018-06-25T15:42:18.099Z,98387.40
2018-06-25T15:44:47.540Z,98388.98
2018-06-25T15:47:16.985Z,98392.81
2018-06-25T15:49:46.360Z,98384.27
2018-06-25T15:52:15.686Z,98388.25
2018-06-25T15:54:45.090Z,98384.00
2018-06-25T15:57:14.436Z,98391.50
2018-06-25T15:59:43.742Z,98395.81
2018-06-25T16:02:13.018Z,98391.52
2018-06-25T16:04:42.450Z,98387.27
2018-06-25T16:07:12.752Z,98387.78
2018-06-25T16:09:42.086Z,98380.08
2018-06-25T16:12:11.444Z,98377.42
2018-06-25T16:14:40.943Z,98384.46
2018-06-25T16:17:10.311Z,98374.12
2018-06-25T16:19:39.743Z,98374.81
2018-06-25T16:22:09.163Z,98374.59
2018-06-25T16:24:38.663Z,98367.11
2018-06-25T16:27:08.035Z,98368.48
2018-06-25T16:29:37.417Z,98367.44
2018-06-25T16:32:06.761Z,98369.94
2018-06-25T16:34:36.005Z,98368.95
2018-06-25T16:37:05.359Z,98362.91
2018-06-25T16:39:34.744Z,98365.47
2018-06-25T16:42:03.998Z,98365.42
2018-06-25T16:44:33.255Z,98368.95
2018-06-25T16:47:02.526Z,98370.81
2018-06-25T16:49:31.789Z,98365.31
2018-06-25T16:52:01.057Z,98366.20
2018-06-25T16:54:30.429Z,98362.31
2018-06-25T16:56:59.713Z,98366.36
2018-06-25T16:59:29.079Z,98360.97
2018-06-25T17:01:58.139Z,98368.52
2018-06-25T17:04:27.672Z,98366.41
2018-06-25T17:06:56.687Z,98367.23
2018-06-25T17:09:26.044Z,98369.42
2018-06-25T17:11:56.218Z,98372.15
2018-06-25T17:14:25.485Z,98372.91
2018-06-25T17:16:54.719Z,98372.31
2018-06-25T17:19:23.991Z,98371.28
2018-06-25T17:21:53.346Z,98372.63
2018-06-25T17:24:22.768Z,98385.17
2018-06-25T17:26:52.127Z,98379.47
2018-06-25T17:29:21.906Z,98380.41
2018-06-25T17:31:51.371Z,98388.24
2018-06-25T17:34:20.678Z,98378.25
2018-06-25T17:36:50.020Z,98383.82
2018-06-25T17:39:20.335Z,98389.89
2018-06-25T17:41:49.686Z,98382.11
2018-06-25T17:44:19.055Z,98379.83
2018-06-25T17:46:48.398Z,98385.23
2018-06-25T17:49:17.622Z,98380.59
2018-06-25T17:51:46.896Z,98382.59
2018-06-25T17:54:16.121Z,98381.98
2018-06-25T17:56:45.382Z,98380.38
2018-06-25T17:59:14.626Z,98378.55
2018-06-25T18:01:44.130Z,98391.42
2018-06-25T18:04:13.133Z,98383.91
2018-06-25T18:06:42.519Z,98387.66
2018-06-25T18:09:12.577Z,98383.89
2018-06-25T18:11:41.923Z,98388.11
2018-06-25T18:14:11.235Z,98387.58
2018-06-25T18:16:40.632Z,98387.84
2018-06-25T18:19:09.995Z,98387.55
2018-06-25T18:21:39.282Z,98390.66
2018-06-25T18:24:08.573Z,98394.02
2018-06-25T18:26:37.923Z,98389.47
2018-06-25T18:29:07.252Z,98393.22
2018-06-25T18:31:36.571Z,98398.31
2018-06-25T18:34:05.872Z,98398.61
2018-06-25T18:36:35.180Z,98396.97
2018-06-25T18:39:06.517Z,98400.42
2018-06-25T18:41:35.807Z,98387.17
2018-06-25T18:44:05.133Z,98395.08
2018-06-25T18:46:34.627Z,98395.67
2018-06-25T18:49:04.003Z,98399.73
2018-06-25T18:51:33.190Z,98408.57
2018-06-25T18:54:02.640Z,98404.12
2018-06-25T18:56:31.950Z,98405.33
2018-06-25T18:59:01.331Z,98410.30
2018-06-25T19:01:30.607Z,98409.13
2018-06-25T19:03:59.643Z,98408.48
2018-06-25T19:06:28.933Z,98411.56
2018-06-25T19:08:58.239Z,98413.59
2018-06-25T19:11:27.494Z,98418.02
2018-06-25T19:13:56.821Z,98421.63
2018-06-25T19:16:26.071Z,98419.55
2018-06-25T19:18:55.543Z,98419.06
2018-06-25T19:21:24.823Z,98425.35
2018-06-25T19:23:54.332Z,98429.17
2018-06-25T19:26:23.666Z,98438.16
2018-06-25T19:28:53.038Z,98434.19
2018-06-25T19:31:22.358Z,98427.75
2018-06-25T19:33:51.412Z,98432.91
2018-06-25T19:36:21.292Z,98432.44
2018-06-25T19:38:50.571Z,98431.56
2018-06-25T19:41:19.616Z,98436.77
2018-06-25T19:43:48.920Z,98444.91
2018-06-25T19:46:17.927Z,98452.80
2018-06-25T19:48:47.177Z,98460.94
2018-06-25T19:51:16.422Z,98461.52
2018-06-25T19:53:45.811Z,98458.59
2018-06-25T19:56:15.114Z,98454.06
2018-06-25T19:58:44.428Z,98462.66
2018-06-25T20:01:13.942Z,98460.03
2018-06-25T20:03:43.274Z,98467.07
2018-06-25T20:06:12.751Z,98468.68
2018-06-25T20:08:42.113Z,98473.27
2018-06-25T20:18:59.005Z,98473.33
2018-06-25T20:25:33.322Z,98471.98
2018-06-25T20:28:53.753Z,98471.17
2018-06-25T20:35:06.212Z,98481.38
2018-06-25T20:48:38.209Z,98479.93
2018-06-25T20:51:56.886Z,98482.36
2018-06-25T21:01:20.170Z,98481.47
2018-06-25T21:04:08.901Z,98485.75
2018-06-25T21:07:33.469Z,98483.38
2018-06-25T21:10:02.836Z,98484.91
2018-06-25T21:12:32.143Z,98487.85
2018-06-25T21:15:01.500Z,98489.45
2018-06-25T21:17:30.745Z,98486.20
2018-06-25T21:20:00.074Z,98482.39
2018-06-25T21:22:29.371Z,98481.02
2018-06-25T21:24:58.752Z,98488.29
2018-06-25T21:27:28.083Z,98488.50
2018-06-25T21:29:57.466Z,98491.36
2018-06-25T21:32:26.705Z,98488.68
2018-06-25T21:34:56.033Z,98484.13
2018-06-25T21:37:25.388Z,98487.05
2018-06-25T21:39:54.767Z,98489.66
2018-06-25T21:42:24.114Z,98487.73
2018-06-25T21:44:53.567Z,98494.06
2018-06-25T21:47:22.895Z,98487.70
2018-06-25T21:49:52.284Z,98490.95
2018-06-25T21:52:21.744Z,98487.92
2018-06-25T21:54:51.178Z,98492.71
2018-06-25T21:57:20.534Z,98493.53
2018-06-25T21:59:49.846Z,98498.84
2018-06-25T22:02:19.195Z,98496.10
2018-06-25T22:04:48.219Z,98492.37
2018-06-25T22:07:17.554Z,98496.98
2018-06-25T22:09:46.907Z,98490.99
2018-06-25T22:12:16.142Z,98494.77
2018-06-25T22:14:45.198Z,98489.07
2018-06-25T22:17:14.646Z,98494.43
2018-06-25T22:19:43.896Z,98497.69
2018-06-25T22:22:13.138Z,98501.13
2018-06-25T22:24:42.449Z,98498.49
2018-06-25T22:27:11.726Z,98498.44
2018-06-25T22:29:40.957Z,98492.80
2018-06-25T22:32:10.222Z,98500.70
2018-06-25T22:34:39.197Z,98515.82
2018-06-25T22:37:08.463Z,98508.53
2018-06-25T22:39:37.710Z,98503.63
2018-06-25T22:42:07.100Z,98501.66
2018-06-25T22:44:36.376Z,98507.57
2018-06-25T22:47:05.658Z,98514.73
2018-06-25T22:49:34.893Z,98503.66
2018-06-25T22:52:04.159Z,98501.98
2018-06-25T22:54:33.387Z,98504.82
2018-06-25T22:57:02.611Z,98507.95
2018-06-25T22:59:31.841Z,98500.70
2018-06-25T23:02:01.078Z,98499.69
2018-06-25T23:04:30.307Z,98490.80
2018-06-25T23:06:59.551Z,98486.78
2018-06-25T23:09:28.799Z,98480.84
2018-06-25T23:11:58.026Z,98481.94
2018-06-25T23:14:27.259Z,98487.01
2018-06-25T23:16:56.512Z,98494.78
2018-06-25T23:19:25.724Z,98500.52
2018-06-25T23:21:54.974Z,98497.57
2018-06-25T23:24:23.963Z,98495.18
2018-06-25T23:26:53.192Z,98498.16
2018-06-25T23:29:22.489Z,98510.58
2018-06-25T23:31:51.751Z,98500.70
2018-06-25T23:34:21.006Z,98499.95
2018-06-25T23:36:50.348Z,98506.86
2018-06-25T23:39:19.579Z,98501.53
2018-06-25T23:41:48.791Z,98498.09
2018-06-25T23:44:18.006Z,98496.05
2018-06-25T23:46:47.231Z,98506.02
2018-06-25T23:49:16.417Z,98494.09
2018-06-25T23:51:45.671Z,98490.58
2018-06-25T23:54:14.921Z,98502.88
2018-06-25T23:56:44.175Z,98503.41
2018-06-25T23:59:13.391Z,98498.05
